PWSweather.com
Personal Weather Stations
Station Observations
KTNBARTL6
Rockyford Subdivision, Bartlett, TN 38002

Rockyford SubdivisionBartlett, TN 38002

Lat: 35.2684679, Lon: -89.8370406

Elevation: 260

Station Type: Davis Vantage Pro2 Wireless

http://www.memphisweather.net/wxlive.shtml

High Low Average
Temperature 87.5°F30.8°C 64.9°F18.3°C 75.8°F24.3°C
Dew Point 69.1°F20.6°C 63.1°F17.3°C 65.8°F18.8°C
Winds 16.0 mph 25.7 kmh Calm Calm 3.0 mph SSW4.8 kmh SSW
Wind Gusts 23.0 mph37.0 kmh -- 4.0 mph6.4 kmh
Humidity 95% 49% 73%
Pressure 29.95 in1014.2 mb 29.77 in1008.1 mb -
Precipitation 0.00 in0.0 mm - -
Hour Temp Dew Point Humidity Winds Wind Gusts Pressure Precip Precip Rate Daily Precip Total
12:05 AM 71.8°F22.1°C 66.7°F19.3°C 84% Calm Calm -- 29.90 in1012.5 mb 0.00 in0.0 mm 0.00 in0.0 mm 0.00 in0.0 mm
12:15 AM 71.5°F21.9°C 66.4°F19.1°C 84% Calm Calm -- 29.90 in1012.5 mb 0.00 in0.0 mm 0.00 in0.0 mm 0.00 in0.0 mm
12:25 AM 71.1°F21.7°C 66.4°F19.1°C 85% Calm Calm -- 29.90 in1012.5 mb 0.00 in0.0 mm 0.00 in0.0 mm 0.00 in0.0 mm
12:35 AM 70.6°F21.4°C 66.2°F19.0°C 86% Calm Calm -- 29.90 in1012.5 mb 0.00 in0.0 mm 0.00 in0.0 mm 0.00 in0.0 mm
12:45 AM 69.9°F21.1°C 66.2°F19.0°C 88% Calm Calm -- 29.90 in1012.5 mb 0.00 in0.0 mm 0.00 in0.0 mm 0.00 in0.0 mm
12:55 AM 69.5°F20.8°C 65.8°F18.8°C 88% Calm Calm -- 29.90 in1012.5 mb 0.00 in0.0 mm 0.00 in0.0 mm 0.00 in0.0 mm
01:05 AM 69.4°F20.8°C 65.7°F18.7°C 88% Calm Calm -- 29.90 in1012.5 mb 0.00 in0.0 mm 0.00 in0.0 mm 0.00 in0.0 mm
01:15 AM 69.6°F20.9°C 65.9°F18.8°C 88% Calm Calm -- 29.89 in1012.2 mb 0.00 in0.0 mm 0.00 in0.0 mm 0.00 in0.0 mm
01:25 AM 69.9°F21.1°C 65.9°F18.8°C 87% Calm Calm -- 29.89 in1012.2 mb 0.00 in0.0 mm 0.00 in0.0 mm 0.00 in0.0 mm
01:35 AM 70.2°F21.2°C 65.8°F18.8°C 86% Calm Calm -- 29.89 in1012.2 mb 0.00 in0.0 mm 0.00 in0.0 mm 0.00 in0.0 mm
01:45 AM 70.6°F21.4°C 65.9°F18.8°C 85% Calm Calm -- 29.89 in1012.2 mb 0.00 in0.0 mm 0.00 in0.0 mm 0.00 in0.0 mm
01:55 AM 70.8°F21.6°C 66.1°F18.9°C 85% Calm Calm -- 29.89 in1012.2 mb 0.00 in0.0 mm 0.00 in0.0 mm 0.00 in0.0 mm
02:05 AM 71.0°F21.7°C 65.9°F18.8°C 84% Calm Calm -- 29.89 in1012.2 mb 0.00 in0.0 mm 0.00 in0.0 mm 0.00 in0.0 mm
02:15 AM 71.1°F21.7°C 66.0°F18.9°C 84% Calm Calm -- 29.89 in1012.2 mb 0.00 in0.0 mm 0.00 in0.0 mm 0.00 in0.0 mm
02:25 AM 71.1°F21.7°C 66.0°F18.9°C 84% Calm Calm -- 29.89 in1012.2 mb 0.00 in0.0 mm 0.00 in0.0 mm 0.00 in0.0 mm
02:35 AM 71.1°F21.7°C 65.7°F18.7°C 83% Calm Calm -- 29.89 in1012.2 mb 0.00 in0.0 mm 0.00 in0.0 mm 0.00 in0.0 mm
02:45 AM 70.9°F21.6°C 65.5°F18.6°C 83% Calm Calm -- 29.89 in1012.2 mb 0.00 in0.0 mm 0.00 in0.0 mm 0.00 in0.0 mm
02:55 AM 70.9°F21.6°C 65.5°F18.6°C 83% Calm Calm -- 29.89 in1012.2 mb 0.00 in0.0 mm 0.00 in0.0 mm 0.00 in0.0 mm
03:05 AM 70.8°F21.6°C 65.4°F18.6°C 83% Calm Calm -- 29.89 in1012.2 mb 0.00 in0.0 mm 0.00 in0.0 mm 0.00 in0.0 mm
03:15 AM 70.7°F21.5°C 65.3°F18.5°C 83% Calm Calm -- 29.89 in1012.2 mb 0.00 in0.0 mm 0.00 in0.0 mm 0.00 in0.0 mm
03:25 AM 70.7°F21.5°C 65.3°F18.5°C 83% Calm Calm -- 29.89 in1012.2 mb 0.00 in0.0 mm 0.00 in0.0 mm 0.00 in0.0 mm
03:35 AM 71.0°F21.7°C 64.9°F18.3°C 81% Calm Calm -- 29.89 in1012.2 mb 0.00 in0.0 mm 0.00 in0.0 mm 0.00 in0.0 mm
03:45 AM 71.0°F21.7°C 64.9°F18.3°C 81% Calm Calm -- 29.89 in1012.2 mb 0.00 in0.0 mm 0.00 in0.0 mm 0.00 in0.0 mm
03:55 AM 70.8°F21.6°C 64.7°F18.2°C 81% Calm Calm -- 29.89 in1012.2 mb 0.00 in0.0 mm 0.00 in0.0 mm 0.00 in0.0 mm
04:05 AM 70.5°F21.4°C 64.8°F18.2°C 82% Calm Calm -- 29.89 in1012.2 mb 0.00 in0.0 mm 0.00 in0.0 mm 0.00 in0.0 mm
04:15 AM 70.2°F21.2°C 64.5°F18.1°C 82% Calm Calm -- 29.89 in1012.2 mb 0.00 in0.0 mm 0.00 in0.0 mm 0.00 in0.0 mm
04:25 AM 70.0°F21.1°C 64.3°F17.9°C 82% Calm Calm -- 29.89 in1012.2 mb 0.00 in0.0 mm 0.00 in0.0 mm 0.00 in0.0 mm
04:35 AM 69.9°F21.1°C 64.5°F18.1°C 83% Calm Calm -- 29.90 in1012.5 mb 0.00 in0.0 mm 0.00 in0.0 mm 0.00 in0.0 mm
04:45 AM 69.9°F21.1°C 64.2°F17.9°C 82% Calm Calm -- 29.90 in1012.5 mb 0.00 in0.0 mm 0.00 in0.0 mm 0.00 in0.0 mm
04:55 AM 69.7°F20.9°C 64.0°F17.8°C 82% Calm Calm -- 29.90 in1012.5 mb 0.00 in0.0 mm 0.00 in0.0 mm 0.00 in0.0 mm
05:05 AM 69.8°F21.0°C 64.1°F17.8°C 82% Calm Calm -- 29.90 in1012.5 mb 0.00 in0.0 mm 0.00 in0.0 mm 0.00 in0.0 mm
05:15 AM 69.4°F20.8°C 64.0°F17.8°C 83% Calm Calm -- 29.90 in1012.5 mb 0.00 in0.0 mm 0.00 in0.0 mm 0.00 in0.0 mm
05:25 AM 68.9°F20.5°C 63.9°F17.7°C 84% Calm Calm -- 29.91 in1012.9 mb 0.00 in0.0 mm 0.00 in0.0 mm 0.00 in0.0 mm
05:35 AM 68.6°F20.3°C 63.6°F17.6°C 84% Calm Calm -- 29.91 in1012.9 mb 0.00 in0.0 mm 0.00 in0.0 mm 0.00 in0.0 mm
05:45 AM 68.4°F20.2°C 63.7°F17.6°C 85% Calm Calm -- 29.91 in1012.9 mb 0.00 in0.0 mm 0.00 in0.0 mm 0.00 in0.0 mm
05:55 AM 68.2°F20.1°C 63.5°F17.5°C 85% Calm Calm -- 29.91 in1012.9 mb 0.00 in0.0 mm 0.00 in0.0 mm 0.00 in0.0 mm
06:05 AM 67.9°F19.9°C 63.6°F17.6°C 86% Calm Calm -- 29.92 in1013.2 mb 0.00 in0.0 mm 0.00 in0.0 mm 0.00 in0.0 mm
06:15 AM 68.1°F20.1°C 63.8°F17.7°C 86% Calm Calm -- 29.92 in1013.2 mb 0.00 in0.0 mm 0.00 in0.0 mm 0.00 in0.0 mm
06:25 AM 68.1°F20.1°C 63.4°F17.4°C 85% Calm Calm -- 29.92 in1013.2 mb 0.00 in0.0 mm 0.00 in0.0 mm 0.00 in0.0 mm
06:35 AM 68.4°F20.2°C 63.7°F17.6°C 85% Calm Calm -- 29.92 in1013.2 mb 0.00 in0.0 mm 0.00 in0.0 mm 0.00 in0.0 mm
06:45 AM 68.9°F20.5°C 64.2°F17.9°C 85% Calm Calm -- 29.93 in1013.5 mb 0.00 in0.0 mm 0.00 in0.0 mm 0.00 in0.0 mm
06:55 AM 69.4°F20.8°C 64.4°F18.0°C 84% 2.0 mph SSW3.2 kmh SSW 5.0 mph8.0 kmh 29.93 in1013.5 mb 0.00 in0.0 mm 0.00 in0.0 mm 0.00 in0.0 mm
07:05 AM 69.8°F21.0°C 64.4°F18.0°C 83% Calm Calm 1.0 mph1.6 kmh 29.93 in1013.5 mb 0.00 in0.0 mm 0.00 in0.0 mm 0.00 in0.0 mm
07:15 AM 70.3°F21.3°C 64.9°F18.3°C 83% 2.0 mph SW3.2 kmh SW 2.0 mph3.2 kmh 29.93 in1013.5 mb 0.00 in0.0 mm 0.00 in0.0 mm 0.00 in0.0 mm
07:25 AM 71.4°F21.9°C 65.6°F18.7°C 82% Calm Calm 1.0 mph1.6 kmh 29.93 in1013.5 mb 0.00 in0.0 mm 0.00 in0.0 mm 0.00 in0.0 mm
07:35 AM 72.4°F22.4°C 65.9°F18.8°C 80% 1.0 mph SSW1.6 kmh SSW 1.0 mph1.6 kmh 29.94 in1013.9 mb 0.00 in0.0 mm 0.00 in0.0 mm 0.00 in0.0 mm
07:45 AM 73.5°F23.1°C 66.2°F19.0°C 78% 4.0 mph S6.4 kmh S 4.0 mph6.4 kmh 29.94 in1013.9 mb 0.00 in0.0 mm 0.00 in0.0 mm 0.00 in0.0 mm
07:55 AM 74.4°F23.6°C 66.7°F19.3°C 77% 3.0 mph SSW4.8 kmh SSW 5.0 mph8.0 kmh 29.94 in1013.9 mb 0.00 in0.0 mm 0.00 in0.0 mm 0.00 in0.0 mm
08:05 AM 74.9°F23.8°C 67.2°F19.6°C 77% 3.0 mph SW4.8 kmh SW 3.0 mph4.8 kmh 29.94 in1013.9 mb 0.00 in0.0 mm 0.00 in0.0 mm 0.00 in0.0 mm
08:15 AM 75.6°F24.2°C 67.1°F19.5°C 75% 5.0 mph SW8.0 kmh SW 5.0 mph8.0 kmh 29.94 in1013.9 mb 0.00 in0.0 mm 0.00 in0.0 mm 0.00 in0.0 mm
08:25 AM 76.1°F24.5°C 67.6°F19.8°C 75% 2.0 mph SSW3.2 kmh SSW 2.0 mph3.2 kmh 29.94 in1013.9 mb 0.00 in0.0 mm 0.00 in0.0 mm 0.00 in0.0 mm
08:35 AM 76.6°F24.8°C 66.9°F19.4°C 72% 3.0 mph SW4.8 kmh SW 4.0 mph6.4 kmh 29.95 in1014.2 mb 0.00 in0.0 mm 0.00 in0.0 mm 0.00 in0.0 mm
08:45 AM 77.3°F25.2°C 67.6°F19.8°C 72% 4.0 mph SW6.4 kmh SW 4.0 mph6.4 kmh 29.95 in1014.2 mb 0.00 in0.0 mm 0.00 in0.0 mm 0.00 in0.0 mm
08:55 AM 77.9°F25.5°C 67.8°F19.9°C 71% 7.0 mph SSW11.3 kmh SSW 8.0 mph12.9 kmh 29.94 in1013.9 mb 0.00 in0.0 mm 0.00 in0.0 mm 0.00 in0.0 mm
09:05 AM 77.9°F25.5°C 67.8°F19.9°C 71% 3.0 mph SW4.8 kmh SW 3.0 mph4.8 kmh 29.94 in1013.9 mb 0.00 in0.0 mm 0.00 in0.0 mm 0.00 in0.0 mm
09:15 AM 78.7°F25.9°C 68.5°F20.3°C 71% 4.0 mph SW6.4 kmh SW 4.0 mph6.4 kmh 29.94 in1013.9 mb 0.00 in0.0 mm 0.00 in0.0 mm 0.00 in0.0 mm
09:25 AM 78.6°F25.9°C 68.0°F20.0°C 70% 9.0 mph SSW14.5 kmh SSW 9.0 mph14.5 kmh 29.94 in1013.9 mb 0.00 in0.0 mm 0.00 in0.0 mm 0.00 in0.0 mm
09:35 AM 79.2°F26.2°C 68.6°F20.3°C 70% 6.0 mph SW9.7 kmh SW 6.0 mph9.7 kmh 29.94 in1013.9 mb 0.00 in0.0 mm 0.00 in0.0 mm 0.00 in0.0 mm
09:45 AM 80.1°F26.7°C 69.0°F20.6°C 69% 4.0 mph SSW6.4 kmh SSW 6.0 mph9.7 kmh 29.94 in1013.9 mb 0.00 in0.0 mm 0.00 in0.0 mm 0.00 in0.0 mm
09:55 AM 80.0°F26.7°C 68.5°F20.3°C 68% 5.0 mph SSW8.0 kmh SSW 5.0 mph8.0 kmh 29.94 in1013.9 mb 0.00 in0.0 mm 0.00 in0.0 mm 0.00 in0.0 mm
10:05 AM 80.1°F26.7°C 68.2°F20.1°C 67% 1.0 mph SW1.6 kmh SW 1.0 mph1.6 kmh 29.93 in1013.5 mb 0.00 in0.0 mm 0.00 in0.0 mm 0.00 in0.0 mm
10:15 AM 81.1°F27.3°C 67.3°F19.6°C 63% 8.0 mph S12.9 kmh S 8.0 mph12.9 kmh 29.93 in1013.5 mb 0.00 in0.0 mm 0.00 in0.0 mm 0.00 in0.0 mm
10:25 AM 81.3°F27.4°C 67.1°F19.5°C 62% 2.0 mph SSW3.2 kmh SSW 3.0 mph4.8 kmh 29.93 in1013.5 mb 0.00 in0.0 mm 0.00 in0.0 mm 0.00 in0.0 mm
10:35 AM 82.0°F27.8°C 67.7°F19.8°C 62% 10.0 mph S16.1 kmh S 10.0 mph16.1 kmh 29.92 in1013.2 mb 0.00 in0.0 mm 0.00 in0.0 mm 0.00 in0.0 mm
10:45 AM 82.2°F27.9°C 66.5°F19.2°C 59% 8.0 mph SSW12.9 kmh SSW 8.0 mph12.9 kmh 29.92 in1013.2 mb 0.00 in0.0 mm 0.00 in0.0 mm 0.00 in0.0 mm
10:55 AM 82.2°F27.9°C 67.4°F19.7°C 61% 1.0 mph SW1.6 kmh SW 2.0 mph3.2 kmh 29.92 in1013.2 mb 0.00 in0.0 mm 0.00 in0.0 mm 0.00 in0.0 mm
11:05 AM 83.0°F28.3°C 66.7°F19.3°C 58% 1.0 mph SW1.6 kmh SW 2.0 mph3.2 kmh 29.92 in1013.2 mb 0.00 in0.0 mm 0.00 in0.0 mm 0.00 in0.0 mm
11:15 AM 82.7°F28.2°C 67.4°F19.7°C 60% 3.0 mph S4.8 kmh S 6.0 mph9.7 kmh 29.92 in1013.2 mb 0.00 in0.0 mm 0.00 in0.0 mm 0.00 in0.0 mm
11:25 AM 82.9°F28.3°C 67.6°F19.8°C 60% 6.0 mph S9.7 kmh S 6.0 mph9.7 kmh 29.91 in1012.9 mb 0.00 in0.0 mm 0.00 in0.0 mm 0.00 in0.0 mm
11:35 AM 83.8°F28.8°C 67.0°F19.4°C 57% 8.0 mph SSW12.9 kmh SSW 8.0 mph12.9 kmh 29.91 in1012.9 mb 0.00 in0.0 mm 0.00 in0.0 mm 0.00 in0.0 mm
11:45 AM 83.7°F28.7°C 65.3°F18.5°C 54% 3.0 mph SSW4.8 kmh SSW 3.0 mph4.8 kmh 29.91 in1012.9 mb 0.00 in0.0 mm 0.00 in0.0 mm 0.00 in0.0 mm
11:55 AM 83.8°F28.8°C 64.3°F17.9°C 52% 2.0 mph S3.2 kmh S 3.0 mph4.8 kmh 29.91 in1012.9 mb 0.00 in0.0 mm 0.00 in0.0 mm 0.00 in0.0 mm
12:05 PM 83.9°F28.8°C 65.5°F18.6°C 54% 2.0 mph SE3.2 kmh SE 3.0 mph4.8 kmh 29.90 in1012.5 mb 0.00 in0.0 mm 0.00 in0.0 mm 0.00 in0.0 mm
12:15 PM 84.2°F29.0°C 65.8°F18.8°C 54% 1.0 mph S1.6 kmh S 1.0 mph1.6 kmh 29.90 in1012.5 mb 0.00 in0.0 mm 0.00 in0.0 mm 0.00 in0.0 mm
12:25 PM 84.2°F29.0°C 65.8°F18.8°C 54% 2.0 mph SSW3.2 kmh SSW 12.0 mph19.3 kmh 29.89 in1012.2 mb 0.00 in0.0 mm 0.00 in0.0 mm 0.00 in0.0 mm
12:35 PM 84.8°F29.3°C 66.3°F19.1°C 54% 3.0 mph WSW4.8 kmh WSW 3.0 mph4.8 kmh 29.89 in1012.2 mb 0.00 in0.0 mm 0.00 in0.0 mm 0.00 in0.0 mm
12:45 PM 85.2°F29.6°C 65.6°F18.7°C 52% 12.0 mph SW19.3 kmh SW 14.0 mph22.5 kmh 29.90 in1012.5 mb 0.00 in0.0 mm 0.00 in0.0 mm 0.00 in0.0 mm
12:55 PM 85.2°F29.6°C 65.1°F18.4°C 51% 6.0 mph ESE9.7 kmh ESE 16.0 mph25.7 kmh 29.89 in1012.2 mb 0.00 in0.0 mm 0.00 in0.0 mm 0.00 in0.0 mm
01:05 PM 85.6°F29.8°C 66.0°F18.9°C 52% 3.0 mph SE4.8 kmh SE 14.0 mph22.5 kmh 29.88 in1011.9 mb 0.00 in0.0 mm 0.00 in0.0 mm 0.00 in0.0 mm
01:15 PM 85.7°F29.8°C 66.6°F19.2°C 53% 8.0 mph SSE12.9 kmh SSE 13.0 mph20.9 kmh 29.88 in1011.9 mb 0.00 in0.0 mm 0.00 in0.0 mm 0.00 in0.0 mm
01:25 PM 86.2°F30.1°C 65.4°F18.6°C 50% 3.0 mph SW4.8 kmh SW 7.0 mph11.3 kmh 29.88 in1011.9 mb 0.00 in0.0 mm 0.00 in0.0 mm 0.00 in0.0 mm
01:35 PM 86.8°F30.4°C 66.0°F18.9°C 50% 16.0 mph SW25.7 kmh SW 16.0 mph25.7 kmh 29.87 in1011.5 mb 0.00 in0.0 mm 0.00 in0.0 mm 0.00 in0.0 mm
01:45 PM 86.2°F30.1°C 66.5°F19.2°C 52% 5.0 mph S8.0 kmh S 8.0 mph12.9 kmh 29.87 in1011.5 mb 0.00 in0.0 mm 0.00 in0.0 mm 0.00 in0.0 mm
01:55 PM 85.7°F29.8°C 64.9°F18.3°C 50% 10.0 mph S16.1 kmh S 10.0 mph16.1 kmh 29.87 in1011.5 mb 0.00 in0.0 mm 0.00 in0.0 mm 0.00 in0.0 mm
02:05 PM 86.2°F30.1°C 66.5°F19.2°C 52% 8.0 mph SW12.9 kmh SW 8.0 mph12.9 kmh 29.86 in1011.2 mb 0.00 in0.0 mm 0.00 in0.0 mm 0.00 in0.0 mm
02:15 PM 87.2°F30.7°C 66.9°F19.4°C 51% 13.0 mph SW20.9 kmh SW 13.0 mph20.9 kmh 29.86 in1011.2 mb 0.00 in0.0 mm 0.00 in0.0 mm 0.00 in0.0 mm
02:25 PM 87.0°F30.6°C 67.8°F19.9°C 53% 5.0 mph S8.0 kmh S 5.0 mph8.0 kmh 29.86 in1011.2 mb 0.00 in0.0 mm 0.00 in0.0 mm 0.00 in0.0 mm
02:35 PM 87.1°F30.6°C 66.8°F19.3°C 51% 4.0 mph SSE6.4 kmh SSE 14.0 mph22.5 kmh 29.85 in1010.8 mb 0.00 in0.0 mm 0.00 in0.0 mm 0.00 in0.0 mm
02:45 PM 86.5°F30.3°C 66.8°F19.3°C 52% 5.0 mph SSW8.0 kmh SSW 16.0 mph25.7 kmh 29.85 in1010.8 mb 0.00 in0.0 mm 0.00 in0.0 mm 0.00 in0.0 mm
02:55 PM 86.9°F30.5°C 67.2°F19.6°C 52% 7.0 mph SSW11.3 kmh SSW 7.0 mph11.3 kmh 29.84 in1010.5 mb 0.00 in0.0 mm 0.00 in0.0 mm 0.00 in0.0 mm
03:05 PM 86.9°F30.5°C 68.3°F20.2°C 54% 1.0 mph SSW1.6 kmh SSW 2.0 mph3.2 kmh 29.83 in1010.2 mb 0.00 in0.0 mm 0.00 in0.0 mm 0.00 in0.0 mm
03:15 PM 87.2°F30.7°C 67.5°F19.7°C 52% 4.0 mph SW6.4 kmh SW 15.0 mph24.1 kmh 29.83 in1010.2 mb 0.00 in0.0 mm 0.00 in0.0 mm 0.00 in0.0 mm
03:25 PM 87.2°F30.7°C 66.9°F19.4°C 51% 4.0 mph SW6.4 kmh SW 4.0 mph6.4 kmh 29.83 in1010.2 mb 0.00 in0.0 mm 0.00 in0.0 mm 0.00 in0.0 mm
03:35 PM 87.5°F30.8°C 67.7°F19.8°C 52% 7.0 mph S11.3 kmh S 7.0 mph11.3 kmh 29.82 in1009.8 mb 0.00 in0.0 mm 0.00 in0.0 mm 0.00 in0.0 mm
03:45 PM 87.2°F30.7°C 67.5°F19.7°C 52% 13.0 mph SW20.9 kmh SW 16.0 mph25.7 kmh 29.82 in1009.8 mb 0.00 in0.0 mm 0.00 in0.0 mm 0.00 in0.0 mm
03:55 PM 87.3°F30.7°C 67.5°F19.7°C 52% 3.0 mph SSW4.8 kmh SSW 3.0 mph4.8 kmh 29.81 in1009.5 mb 0.00 in0.0 mm 0.00 in0.0 mm 0.00 in0.0 mm
04:05 PM 87.0°F30.6°C 66.7°F19.3°C 51% 4.0 mph SW6.4 kmh SW 4.0 mph6.4 kmh 29.81 in1009.5 mb 0.00 in0.0 mm 0.00 in0.0 mm 0.00 in0.0 mm
04:15 PM 87.2°F30.7°C 66.9°F19.4°C 51% 3.0 mph S4.8 kmh S 4.0 mph6.4 kmh 29.81 in1009.5 mb 0.00 in0.0 mm 0.00 in0.0 mm 0.00 in0.0 mm
04:25 PM 87.0°F30.6°C 66.1°F18.9°C 50% 9.0 mph SSW14.5 kmh SSW 9.0 mph14.5 kmh 29.81 in1009.5 mb 0.00 in0.0 mm 0.00 in0.0 mm 0.00 in0.0 mm
04:35 PM 86.7°F30.4°C 65.3°F18.5°C 49% 4.0 mph SE6.4 kmh SE 14.0 mph22.5 kmh 29.81 in1009.5 mb 0.00 in0.0 mm 0.00 in0.0 mm 0.00 in0.0 mm
04:45 PM 86.6°F30.3°C 65.2°F18.4°C 49% 11.0 mph S17.7 kmh S 11.0 mph17.7 kmh 29.81 in1009.5 mb 0.00 in0.0 mm 0.00 in0.0 mm 0.00 in0.0 mm
04:55 PM 86.7°F30.4°C 65.3°F18.5°C 49% 5.0 mph SW8.0 kmh SW 11.0 mph17.7 kmh 29.82 in1009.8 mb 0.00 in0.0 mm 0.00 in0.0 mm 0.00 in0.0 mm
05:05 PM 86.4°F30.2°C 65.6°F18.7°C 50% 7.0 mph SSW11.3 kmh SSW 8.0 mph12.9 kmh 29.81 in1009.5 mb 0.00 in0.0 mm 0.00 in0.0 mm 0.00 in0.0 mm
05:15 PM 86.2°F30.1°C 66.0°F18.9°C 51% 8.0 mph SSE12.9 kmh SSE 9.0 mph14.5 kmh 29.81 in1009.5 mb 0.00 in0.0 mm 0.00 in0.0 mm 0.00 in0.0 mm
05:25 PM 85.6°F29.8°C 66.0°F18.9°C 52% 3.0 mph S4.8 kmh S 3.0 mph4.8 kmh 29.80 in1009.1 mb 0.00 in0.0 mm 0.00 in0.0 mm 0.00 in0.0 mm
05:35 PM 85.3°F29.6°C 66.3°F19.1°C 53% 2.0 mph SSW3.2 kmh SSW 15.0 mph24.1 kmh 29.80 in1009.1 mb 0.00 in0.0 mm 0.00 in0.0 mm 0.00 in0.0 mm
05:45 PM 84.7°F29.3°C 66.2°F19.0°C 54% 4.0 mph S6.4 kmh S 15.0 mph24.1 kmh 29.80 in1009.1 mb 0.00 in0.0 mm 0.00 in0.0 mm 0.00 in0.0 mm
05:55 PM 84.3°F29.1°C 66.4°F19.1°C 55% 4.0 mph S6.4 kmh S 6.0 mph9.7 kmh 29.79 in1008.8 mb 0.00 in0.0 mm 0.00 in0.0 mm 0.00 in0.0 mm
06:05 PM 84.0°F28.9°C 66.6°F19.2°C 56% 4.0 mph SW6.4 kmh SW 9.0 mph14.5 kmh 29.79 in1008.8 mb 0.00 in0.0 mm 0.00 in0.0 mm 0.00 in0.0 mm
06:15 PM 83.7°F28.7°C 66.9°F19.4°C 57% 6.0 mph SSW9.7 kmh SSW 7.0 mph11.3 kmh 29.79 in1008.8 mb 0.00 in0.0 mm 0.00 in0.0 mm 0.00 in0.0 mm
06:25 PM 83.4°F28.6°C 66.6°F19.2°C 57% 3.0 mph S4.8 kmh S 10.0 mph16.1 kmh 29.79 in1008.8 mb 0.00 in0.0 mm 0.00 in0.0 mm 0.00 in0.0 mm
06:35 PM 83.2°F28.4°C 66.9°F19.4°C 58% 4.0 mph SSW6.4 kmh SSW 8.0 mph12.9 kmh 29.80 in1009.1 mb 0.00 in0.0 mm 0.00 in0.0 mm 0.00 in0.0 mm
06:45 PM 83.0°F28.3°C 66.7°F19.3°C 58% 6.0 mph S9.7 kmh S 8.0 mph12.9 kmh 29.80 in1009.1 mb 0.00 in0.0 mm 0.00 in0.0 mm 0.00 in0.0 mm
06:55 PM 83.0°F28.3°C 67.2°F19.6°C 59% 4.0 mph SSW6.4 kmh SSW 4.0 mph6.4 kmh 29.80 in1009.1 mb 0.00 in0.0 mm 0.00 in0.0 mm 0.00 in0.0 mm
07:05 PM 82.7°F28.2°C 67.4°F19.7°C 60% 1.0 mph SSW1.6 kmh SSW 3.0 mph4.8 kmh 29.81 in1009.5 mb 0.00 in0.0 mm 0.00 in0.0 mm 0.00 in0.0 mm
07:15 PM 78.7°F25.9°C 68.1°F20.1°C 70% 7.0 mph SSW11.3 kmh SSW 23.0 mph37.0 kmh 29.82 in1009.8 mb 0.04 in1.0 mm 0.24 in6.1 mm 0.04 in1.0 mm
07:25 PM 72.8°F22.7°C 66.6°F19.2°C 81% 6.0 mph E9.7 kmh E 6.0 mph9.7 kmh 29.78 in1008.5 mb 0.17 in4.3 mm 0.78 in19.8 mm 0.17 in4.3 mm
07:35 PM 71.9°F22.2°C 67.2°F19.6°C 85% Calm Calm 7.0 mph11.3 kmh 29.78 in1008.5 mb 0.17 in4.3 mm 0.00 in0.0 mm 0.17 in4.3 mm
07:45 PM 71.1°F21.7°C 67.7°F19.8°C 89% Calm Calm -- 29.77 in1008.1 mb 0.17 in4.3 mm 0.00 in0.0 mm 0.17 in4.3 mm
07:55 PM 71.2°F21.8°C 68.1°F20.1°C 90% Calm Calm -- 29.77 in1008.1 mb 0.17 in4.3 mm 0.00 in0.0 mm 0.17 in4.3 mm
08:05 PM 71.2°F21.8°C 68.1°F20.1°C 90% Calm Calm -- 29.77 in1008.1 mb 0.17 in4.3 mm 0.00 in0.0 mm 0.17 in4.3 mm
08:15 PM 71.4°F21.9°C 68.6°F20.3°C 91% Calm Calm -- 29.78 in1008.5 mb 0.16 in4.1 mm 0.00 in0.0 mm 0.17 in4.3 mm
08:25 PM 71.8°F22.1°C 68.7°F20.4°C 90% Calm Calm -- 29.79 in1008.8 mb 0.01 in0.3 mm 0.00 in0.0 mm 0.17 in4.3 mm
08:35 PM 72.2°F22.3°C 69.1°F20.6°C 90% Calm Calm -- 29.80 in1009.1 mb 0.00 in0.0 mm 0.00 in0.0 mm 0.17 in4.3 mm
08:45 PM 70.2°F21.2°C 65.1°F18.4°C 84% 4.0 mph NW6.4 kmh NW 8.0 mph12.9 kmh 29.85 in1010.8 mb 0.00 in0.0 mm 0.00 in0.0 mm 0.17 in4.3 mm
08:55 PM 67.9°F19.9°C 64.2°F17.9°C 88% 6.0 mph W9.7 kmh W 8.0 mph12.9 kmh 29.86 in1011.2 mb 0.02 in0.5 mm 0.12 in3.0 mm 0.19 in4.8 mm
09:05 PM 66.7°F19.3°C 63.7°F17.6°C 90% Calm Calm 9.0 mph14.5 kmh 29.87 in1011.5 mb 0.05 in1.3 mm 0.04 in1.0 mm 0.22 in5.6 mm
09:15 PM 66.1°F18.9°C 63.7°F17.6°C 92% 4.0 mph N6.4 kmh N 12.0 mph19.3 kmh 29.87 in1011.5 mb 0.07 in1.8 mm 0.12 in3.0 mm 0.24 in6.1 mm
09:25 PM 65.7°F18.7°C 63.3°F17.4°C 92% Calm Calm 14.0 mph22.5 kmh 29.86 in1011.2 mb 0.15 in3.8 mm 0.48 in12.2 mm 0.32 in8.1 mm
09:35 PM 65.5°F18.6°C 63.4°F17.4°C 93% 5.0 mph NNW8.0 kmh NNW 5.0 mph8.0 kmh 29.88 in1011.9 mb 0.28 in7.1 mm 0.78 in19.8 mm 0.45 in11.4 mm
09:45 PM 65.2°F18.4°C 63.1°F17.3°C 93% 3.0 mph NNW4.8 kmh NNW 3.0 mph4.8 kmh 29.89 in1012.2 mb 0.35 in8.9 mm 0.42 in10.7 mm 0.52 in13.2 mm
09:55 PM 65.0°F18.3°C 63.2°F17.3°C 94% Calm Calm -- 29.89 in1012.2 mb 0.36 in9.1 mm 0.06 in1.5 mm 0.53 in13.5 mm
10:05 PM 65.1°F18.4°C 63.3°F17.4°C 94% Calm Calm 3.0 mph4.8 kmh 29.90 in1012.5 mb 0.39 in9.9 mm 0.04 in1.0 mm 0.56 in14.2 mm
10:15 PM 64.9°F18.3°C 63.1°F17.3°C 94% Calm Calm -- 29.89 in1012.2 mb 0.48 in12.2 mm 0.54 in13.7 mm 0.65 in16.5 mm
10:25 PM 64.9°F18.3°C 63.4°F17.4°C 95% Calm Calm -- 29.90 in1012.5 mb 0.42 in10.7 mm 0.00 in0.0 mm 0.65 in16.5 mm
10:35 PM 65.0°F18.3°C 63.5°F17.5°C 95% Calm Calm -- 29.89 in1012.2 mb 0.32 in8.1 mm 0.00 in0.0 mm 0.65 in16.5 mm
10:45 PM 65.1°F18.4°C 63.6°F17.6°C 95% Calm Calm -- 29.90 in1012.5 mb 0.25 in6.4 mm 0.00 in0.0 mm 0.65 in16.5 mm
10:55 PM 65.0°F18.3°C 63.5°F17.5°C 95% Calm Calm 1.0 mph1.6 kmh 29.91 in1012.9 mb 0.24 in6.1 mm 0.00 in0.0 mm 0.65 in16.5 mm
11:05 PM 65.1°F18.4°C 63.6°F17.6°C 95% Calm Calm 1.0 mph1.6 kmh 29.90 in1012.5 mb 0.25 in6.4 mm 0.01 in0.3 mm 0.66 in16.8 mm
11:15 PM 65.2°F18.4°C 63.7°F17.6°C 95% Calm Calm -- 29.89 in1012.2 mb 0.17 in4.3 mm 0.00 in0.0 mm 0.66 in16.8 mm
11:25 PM 65.3°F18.5°C 63.8°F17.7°C 95% Calm Calm -- 29.89 in1012.2 mb 0.09 in2.3 mm 0.00 in0.0 mm 0.66 in16.8 mm
11:35 PM 65.2°F18.4°C 63.7°F17.6°C 95% Calm Calm 1.0 mph1.6 kmh 29.89 in1012.2 mb 0.08 in2.0 mm 0.00 in0.0 mm 0.66 in16.8 mm
11:45 PM 65.3°F18.5°C 63.8°F17.7°C 95% Calm Calm -- 29.89 in1012.2 mb 0.06 in1.5 mm 0.00 in0.0 mm 0.66 in16.8 mm
11:55 PM 65.3°F18.5°C 63.8°F17.7°C 95% 4.0 mph SW6.4 kmh SW 4.0 mph6.4 kmh 29.90 in1012.5 mb 0.06 in1.5 mm 0.00 in0.0 mm 0.66 in16.8 mm